Cascade, Washington
Current Conditions -  °F | °C
As of 4:53 AM on Friday 24 Oct 2014 (Local Time) from KRNT Reporting Station
Haze Haze  
Wind Chill: 49°   Ceiling: 3300
Heat Index: 49°   Visibility: 5mi
Dew Point: 48°   Wind: 0mph
Humidity: 97%   Direction: NA
Pressure: 30.04"   Gusts: NA
Location:  47.4414°N, 122.121°W
Report Text: KRNT 241153Z 00000KT 5SM BR BKN033 BKN041 OVC050 09/09 A3004 RMK AO2 RAB19E33 SLP176 P0000 60002 70029 T00940089 10100 20094 50002
Loading
Personal Weather Stations






























Interactive Weather Map
Tropical Storm Tracking
New forecast layout! Learn more

10-Day Weather Forecast

Advertisements
Track Severe Weather on mobile